createdAt,value
2022-08-02T00:01:03.146Z,97592.95
2022-08-02T00:03:31.385Z,97591.14
2022-08-02T00:06:01.411Z,97589.27
2022-08-02T00:08:29.476Z,97587.78
2022-08-02T00:10:57.462Z,97588.31
2022-08-02T00:13:25.479Z,97590.50
2022-08-02T00:15:53.693Z,97590.52
2022-08-02T00:18:22.078Z,97594.83
2022-08-02T00:20:50.447Z,97601.90
2022-08-02T00:23:18.538Z,97602.44
2022-08-02T00:25:55.030Z,97598.20
2022-08-02T00:28:27.249Z,97594.21
2022-08-02T00:31:00.246Z,97597.11
2022-08-02T00:34:09.138Z,97597.50
2022-08-02T00:36:17.789Z,97597.83
2022-08-02T00:38:48.222Z,97593.32
2022-08-02T00:41:18.957Z,97592.55
2022-08-02T00:43:48.769Z,97589.55
2022-08-02T00:46:19.597Z,97592.29
2022-08-02T00:48:48.126Z,97592.59
2022-08-02T00:51:18.295Z,97591.33
2022-08-02T00:53:46.479Z,97589.88
2022-08-02T00:56:14.480Z,97594.20
2022-08-02T00:58:42.495Z,97601.16
2022-08-02T01:01:10.753Z,97602.88
2022-08-02T01:03:38.862Z,97604.69
2022-08-02T01:06:11.400Z,97609.05
2022-08-02T01:08:40.540Z,97612.45
2022-08-02T01:11:08.921Z,97610.13
2022-08-02T01:13:37.191Z,97610.23
2022-08-02T01:16:15.178Z,97604.15
2022-08-02T01:18:48.083Z,97602.02
2022-08-02T01:21:37.866Z,97600.17
2022-08-02T01:24:21.196Z,97598.10
2022-08-02T01:27:11.003Z,97603.15
2022-08-02T01:29:44.060Z,97606.61
2022-08-02T01:32:29.850Z,97610.10
2022-08-02T01:35:28.742Z,97606.24
2022-08-02T01:38:22.174Z,97604.30
2022-08-02T01:40:52.476Z,97604.67
2022-08-02T01:43:23.576Z,97603.83
2022-08-02T01:45:53.403Z,97604.54
2022-08-02T01:48:23.511Z,97600.73
2022-08-02T01:50:53.432Z,97603.33
2022-08-02T01:53:22.747Z,97596.86
2022-08-02T01:55:57.409Z,97597.92
2022-08-02T01:58:31.208Z,97599.40
2022-08-02T02:01:01.891Z,97596.45
2022-08-02T02:03:33.555Z,97601.45
2022-08-02T02:06:05.615Z,97601.13
2022-08-02T02:08:43.810Z,97597.81
2022-08-02T02:12:11.001Z,97593.54
2022-08-02T02:14:03.452Z,97596.51
2022-08-02T02:16:33.751Z,97594.46
2022-08-02T02:19:03.758Z,97600.11
2022-08-02T02:21:32.445Z,97603.04
2022-08-02T02:24:04.101Z,97608.61
2022-08-02T02:26:36.242Z,97609.35
2022-08-02T02:29:09.460Z,97604.89
2022-08-02T02:31:39.663Z,97607.48
2022-08-02T02:34:37.799Z,97608.54
2022-08-02T02:37:12.759Z,97607.39
2022-08-02T02:39:42.605Z,97600.97
2022-08-02T02:42:14.290Z,97599.49
2022-08-02T02:44:43.978Z,97598.64
2022-08-02T02:47:14.503Z,97600.41
2022-08-02T02:49:45.326Z,97604.77
2022-08-02T02:52:16.786Z,97602.70
2022-08-02T02:54:48.339Z,97605.42
2022-08-02T02:57:17.537Z,97606.08
2022-08-02T02:59:49.783Z,97611.14
2022-08-02T03:02:20.033Z,97618.67
2022-08-02T03:04:57.178Z,97619.96
2022-08-02T03:07:27.363Z,97621.39
2022-08-02T03:09:55.934Z,97622.04
2022-08-02T03:12:30.879Z,97622.07
2022-08-02T03:15:07.506Z,97622.73
2022-08-02T03:17:53.824Z,97624.21
2022-08-02T03:20:23.124Z,97628.87
2022-08-02T03:22:51.609Z,97631.21
2022-08-02T03:25:19.992Z,97632.63
2022-08-02T03:27:48.038Z,97633.16
2022-08-02T03:30:16.763Z,97635.79
2022-08-02T03:32:47.583Z,97637.23
2022-08-02T03:35:23.414Z,97636.55
2022-08-02T03:37:56.221Z,97632.20
2022-08-02T03:40:25.720Z,97633.36
2022-08-02T03:42:55.037Z,97636.39
2022-08-02T03:45:24.705Z,97632.54
2022-08-02T03:47:53.013Z,97635.84
2022-08-02T03:50:23.094Z,97636.09
2022-08-02T03:52:51.710Z,97640.20
2022-08-02T03:55:19.994Z,97643.98
2022-08-02T03:57:49.089Z,97647.08
2022-08-02T04:00:22.986Z,97648.68
2022-08-02T04:02:51.294Z,97651.33
2022-08-02T04:05:20.263Z,97652.50
2022-08-02T04:08:34.327Z,97656.81
2022-08-02T04:10:58.085Z,97652.67
2022-08-02T04:13:35.661Z,97651.92
2022-08-02T04:16:29.967Z,97649.08
2022-08-02T04:19:15.079Z,97648.59
2022-08-02T04:21:51.103Z,97649.00
2022-08-02T04:24:32.322Z,97651.75
2022-08-02T04:27:19.762Z,97651.95
2022-08-02T04:29:52.788Z,97652.88
2022-08-02T04:32:22.911Z,97657.74
2022-08-02T04:35:18.862Z,97654.15
2022-08-02T04:38:08.415Z,97655.05
2022-08-02T04:40:38.228Z,97654.39
2022-08-02T04:43:06.706Z,97656.79
2022-08-02T04:45:36.243Z,97655.17
2022-08-02T04:48:05.909Z,97654.70
2022-08-02T04:50:35.541Z,97654.30
2022-08-02T04:53:04.013Z,97657.38
2022-08-02T04:55:32.393Z,97661.44
2022-08-02T04:58:04.016Z,97662.95
2022-08-02T05:00:37.929Z,97665.05
2022-08-02T05:03:06.851Z,97665.75
2022-08-02T05:05:34.836Z,97666.64
2022-08-02T05:08:03.913Z,97661.60
2022-08-02T05:10:32.083Z,97661.92
2022-08-02T05:13:00.258Z,97667.16
2022-08-02T05:15:32.911Z,97667.81
2022-08-02T05:18:01.930Z,97669.80
2022-08-02T05:20:30.030Z,97666.20
2022-08-02T05:22:58.079Z,97669.41
2022-08-02T05:25:26.356Z,97671.31
2022-08-02T05:27:54.336Z,97673.05
2022-08-02T05:30:22.455Z,97676.40
2022-08-02T05:32:52.821Z,97679.39
2022-08-02T05:35:22.932Z,97679.65
2022-08-02T05:37:52.075Z,97681.92
2022-08-02T05:40:25.360Z,97687.00
2022-08-02T05:42:55.750Z,97690.24
2022-08-02T05:45:24.237Z,97690.27
2022-08-02T05:47:52.927Z,97693.18
2022-08-02T05:50:21.100Z,97694.64
2022-08-02T05:53:04.250Z,97695.13
2022-08-02T05:55:39.203Z,97696.67
2022-08-02T05:58:31.291Z,97706.39
2022-08-02T06:01:04.189Z,97707.45
2022-08-02T06:03:37.367Z,97703.93
2022-08-02T06:06:13.933Z,97702.51
2022-08-02T06:08:48.410Z,97705.77
2022-08-02T06:11:24.313Z,97712.09
2022-08-02T06:13:54.419Z,97716.41
2022-08-02T06:16:31.923Z,97713.26
2022-08-02T06:19:02.359Z,97719.79
2022-08-02T06:22:35.873Z,97719.40
2022-08-02T06:24:20.028Z,97716.84
2022-08-02T06:26:55.190Z,97718.42
2022-08-02T06:29:24.912Z,97717.53
2022-08-02T06:31:56.610Z,97714.05
2022-08-02T06:34:24.781Z,97709.21
2022-08-02T06:37:06.886Z,97710.02
2022-08-02T06:39:46.739Z,97709.65
2022-08-02T06:42:26.995Z,97707.77
2022-08-02T06:44:57.968Z,97718.29
2022-08-02T06:47:27.023Z,97715.56
2022-08-02T06:49:57.226Z,97715.16
2022-08-02T06:52:29.692Z,97715.44
2022-08-02T06:55:00.839Z,97715.54
2022-08-02T06:57:29.964Z,97717.64
2022-08-02T07:00:01.862Z,97718.52
2022-08-02T07:02:31.231Z,97720.80
2022-08-02T07:04:59.815Z,97721.13
2022-08-02T07:07:28.436Z,97722.50
2022-08-02T07:10:00.747Z,97720.70
2022-08-02T07:12:32.171Z,97716.40
2022-08-02T07:15:02.705Z,97714.48
2022-08-02T07:17:31.128Z,97712.73
2022-08-02T07:19:59.915Z,97711.48
2022-08-02T07:22:28.554Z,97713.41
2022-08-02T07:24:59.979Z,97710.95
2022-08-02T07:27:29.148Z,97707.85
2022-08-02T07:29:57.741Z,97706.22
2022-08-02T07:32:30.002Z,97711.44
2022-08-02T07:34:59.325Z,97713.52
2022-08-02T07:37:53.238Z,97713.39
2022-08-02T07:40:19.516Z,97715.67
2022-08-02T07:42:52.498Z,97719.73
2022-08-02T07:45:22.786Z,97719.55
2022-08-02T07:47:51.795Z,97718.74
2022-08-02T07:50:21.455Z,97721.55
2022-08-02T07:52:57.908Z,97717.88
2022-08-02T07:55:39.993Z,97715.30
2022-08-02T07:58:12.655Z,97717.60
2022-08-02T08:00:43.951Z,97721.34
2022-08-02T08:03:12.625Z,97717.34
2022-08-02T08:05:41.289Z,97716.97
2022-08-02T08:08:15.062Z,97719.91
2022-08-02T08:10:45.526Z,97722.21
2022-08-02T08:13:14.314Z,97726.35
2022-08-02T08:15:50.080Z,97723.88
2022-08-02T08:18:22.027Z,97721.29
2022-08-02T08:20:51.979Z,97721.98
2022-08-02T08:23:20.424Z,97724.09
2022-08-02T08:25:48.796Z,97722.72
2022-08-02T08:28:17.491Z,97720.91
2022-08-02T08:30:47.608Z,97724.36
2022-08-02T08:33:16.350Z,97728.21
2022-08-02T08:35:44.772Z,97725.31
2022-08-02T08:38:13.049Z,97728.27
2022-08-02T08:40:42.451Z,97724.15
2022-08-02T08:43:14.159Z,97724.61
2022-08-02T08:45:55.993Z,97725.77
2022-08-02T08:48:28.897Z,97726.64
2022-08-02T08:51:10.988Z,97726.11
2022-08-02T08:53:42.532Z,97731.05
2022-08-02T08:56:15.969Z,97730.13
2022-08-02T08:58:47.880Z,97730.31
2022-08-02T09:01:17.147Z,97730.20
2022-08-02T09:03:45.989Z,97729.36
2022-08-02T09:06:14.635Z,97731.43
2022-08-02T09:08:42.670Z,97734.48
2022-08-02T09:11:19.630Z,97737.95
2022-08-02T09:13:59.035Z,97734.51
2022-08-02T09:16:28.676Z,97733.39
2022-08-02T09:18:57.750Z,97731.52
2022-08-02T09:21:36.563Z,97730.09
2022-08-02T09:24:16.964Z,97728.87
2022-08-02T09:26:45.842Z,97731.64
2022-08-02T09:29:15.454Z,97730.69
2022-08-02T09:31:45.738Z,97726.08
2022-08-02T09:34:20.169Z,97727.58
2022-08-02T09:36:48.636Z,97725.96
2022-08-02T09:39:24.125Z,97729.48
2022-08-02T09:41:52.300Z,97726.34
2022-08-02T09:44:20.712Z,97728.73
2022-08-02T09:46:49.052Z,97725.58
2022-08-02T09:49:19.853Z,97727.80
2022-08-02T09:51:54.347Z,97725.48
2022-08-02T09:54:28.969Z,97724.94
2022-08-02T09:57:00.096Z,97722.70
2022-08-02T09:59:29.698Z,97717.63
2022-08-02T10:02:02.559Z,97716.47
2022-08-02T10:04:53.281Z,97717.67
2022-08-02T10:07:23.701Z,97717.05
2022-08-02T10:09:52.593Z,97714.46
2022-08-02T10:12:23.237Z,97714.36
2022-08-02T10:14:52.223Z,97705.75
2022-08-02T10:17:21.348Z,97701.16
2022-08-02T10:20:00.339Z,97700.90
2022-08-02T10:22:34.669Z,97701.82
2022-08-02T10:25:05.035Z,97695.20
2022-08-02T10:28:02.384Z,97696.23
2022-08-02T10:30:26.869Z,97696.96
2022-08-02T10:32:59.984Z,97697.33
2022-08-02T10:35:31.263Z,97693.87
2022-08-02T10:38:08.143Z,97694.94
2022-08-02T10:40:50.041Z,97695.08
2022-08-02T10:43:44.459Z,97693.02
2022-08-02T10:46:22.555Z,97690.08
2022-08-02T10:52:00.768Z,97675.34
2022-08-02T10:54:32.529Z,97671.77
2022-08-02T10:57:01.856Z,97673.93
2022-08-02T10:59:38.133Z,97673.55
2022-08-02T11:02:06.980Z,97673.48
2022-08-02T11:04:38.125Z,97669.46
2022-08-02T11:07:11.857Z,97669.79
2022-08-02T11:09:47.485Z,97667.66
2022-08-02T11:12:20.059Z,97669.02
2022-08-02T11:15:07.878Z,97671.08
2022-08-02T11:17:53.515Z,97670.19
2022-08-02T11:20:23.394Z,97666.40
2022-08-02T11:22:53.597Z,97666.39
2022-08-02T11:25:24.379Z,97669.63
2022-08-02T11:28:14.638Z,97671.05
2022-08-02T11:30:42.814Z,97663.12
2022-08-02T11:33:10.983Z,97658.59
2022-08-02T11:35:40.392Z,97658.65
2022-08-02T11:38:19.936Z,97654.70
2022-08-02T11:40:49.560Z,97655.91
2022-08-02T11:43:31.005Z,97662.14
2022-08-02T11:46:12.309Z,97660.61
2022-08-02T11:48:42.616Z,97652.93
2022-08-02T11:51:15.988Z,97654.61
2022-08-02T11:53:57.927Z,97656.05
2022-08-02T11:56:29.065Z,97653.21
2022-08-02T11:59:08.361Z,97648.63
2022-08-02T12:01:45.717Z,97649.45
2022-08-02T12:04:22.434Z,97648.00
2022-08-02T12:06:56.886Z,97649.59
2022-08-02T12:09:27.807Z,97644.35
2022-08-02T12:11:57.741Z,97642.71
2022-08-02T12:14:27.552Z,97639.22
2022-08-02T12:17:14.670Z,97639.14
2022-08-02T12:19:43.876Z,97636.79
2022-08-02T12:22:18.523Z,97633.02
2022-08-02T12:24:55.765Z,97632.38
2022-08-02T12:27:40.601Z,97635.40
2022-08-02T12:30:14.150Z,97639.35
2022-08-02T12:32:42.434Z,97638.52
2022-08-02T12:35:13.259Z,97635.20
2022-08-02T12:37:44.993Z,97635.56
2022-08-02T12:40:20.902Z,97628.75
2022-08-02T12:43:03.049Z,97630.05
2022-08-02T12:45:49.038Z,97629.13
2022-08-02T12:48:36.965Z,97625.98
2022-08-02T12:51:23.779Z,97625.05
2022-08-02T12:53:58.971Z,97623.54
2022-08-02T12:56:33.985Z,97620.31
2022-08-02T12:59:02.062Z,97622.41
2022-08-02T13:01:31.018Z,97624.58
2022-08-02T13:04:09.409Z,97627.96
2022-08-02T13:06:44.842Z,97627.72
2022-08-02T13:09:16.360Z,97626.41
2022-08-02T13:11:44.973Z,97628.17
2022-08-02T13:14:14.433Z,97633.42
2022-08-02T13:16:44.849Z,97631.89
2022-08-02T13:19:15.925Z,97634.42
2022-08-02T13:22:01.213Z,97633.99
2022-08-02T13:24:38.814Z,97629.59
2022-08-02T13:27:10.085Z,97629.66
2022-08-02T13:29:38.426Z,97625.92
2022-08-02T13:32:06.714Z,97625.56
2022-08-02T13:34:34.976Z,97626.82
2022-08-02T13:37:04.810Z,97627.21
2022-08-02T13:39:33.095Z,97629.17
2022-08-02T13:42:01.195Z,97629.89
2022-08-02T13:44:29.766Z,97630.08
2022-08-02T13:46:58.612Z,97628.09
2022-08-02T13:49:50.992Z,97631.41
2022-08-02T13:52:15.580Z,97630.63
2022-08-02T13:54:44.018Z,97632.80
2022-08-02T13:57:12.193Z,97632.30
2022-08-02T13:59:57.262Z,97628.11
2022-08-02T14:02:30.999Z,97626.31
2022-08-02T14:04:59.427Z,97629.70
2022-08-02T14:07:27.502Z,97629.67
2022-08-02T14:09:55.530Z,97627.60
2022-08-02T14:12:23.701Z,97625.40
2022-08-02T14:14:51.747Z,97626.61
2022-08-02T14:17:20.218Z,97625.30
2022-08-02T14:19:48.392Z,97623.17
2022-08-02T14:22:17.282Z,97621.89
2022-08-02T14:24:45.764Z,97620.73
2022-08-02T14:27:13.931Z,97616.98
2022-08-02T14:29:42.515Z,97615.63
2022-08-02T14:32:11.084Z,97617.73
2022-08-02T14:34:39.683Z,97616.52
2022-08-02T14:37:07.857Z,97613.14
2022-08-02T14:39:43.117Z,97616.31
2022-08-02T14:42:24.003Z,97612.84
2022-08-02T14:44:52.149Z,97613.13
2022-08-02T14:47:20.320Z,97612.86
2022-08-02T14:49:50.502Z,97610.72
2022-08-02T14:52:19.981Z,97609.91
2022-08-02T14:54:48.585Z,97614.95
2022-08-02T14:57:17.008Z,97614.15
2022-08-02T14:59:45.166Z,97617.09
2022-08-02T15:02:14.450Z,97620.11
2022-08-02T15:04:43.803Z,97619.00
2022-08-02T15:07:13.468Z,97619.86
2022-08-02T15:09:41.779Z,97622.81
2022-08-02T15:12:12.188Z,97621.99
2022-08-02T15:14:41.300Z,97619.16
2022-08-02T15:17:10.084Z,97620.91
2022-08-02T15:19:57.633Z,97623.47
2022-08-02T15:22:28.924Z,97622.33
2022-08-02T15:24:57.849Z,97614.66
2022-08-02T15:27:26.125Z,97613.83
2022-08-02T15:30:00.181Z,97612.88
2022-08-02T15:32:28.827Z,97614.63
2022-08-02T15:34:56.900Z,97613.10
2022-08-02T15:37:25.478Z,97612.48
2022-08-02T15:40:02.459Z,97613.27
2022-08-02T15:42:31.066Z,97619.64
2022-08-02T15:45:00.080Z,97616.17
2022-08-02T15:47:28.622Z,97617.51
2022-08-02T15:49:58.608Z,97615.41
2022-08-02T15:52:27.652Z,97613.80
2022-08-02T15:54:56.010Z,97612.33
2022-08-02T15:57:24.801Z,97607.92
2022-08-02T15:59:53.482Z,97608.86
2022-08-02T16:02:22.128Z,97607.96
2022-08-02T16:04:50.756Z,97607.30
2022-08-02T16:07:18.927Z,97611.55
2022-08-02T16:09:47.105Z,97610.60
2022-08-02T16:12:15.619Z,97613.30
2022-08-02T16:14:45.519Z,97615.91
2022-08-02T16:17:13.776Z,97619.58
2022-08-02T16:19:48.638Z,97620.61
2022-08-02T16:22:18.642Z,97629.41
2022-08-02T16:24:47.105Z,97627.68
2022-08-02T16:27:15.200Z,97628.54
2022-08-02T16:29:43.747Z,97633.19
2022-08-02T16:32:12.821Z,97632.12
2022-08-02T16:35:06.782Z,97635.13
2022-08-02T16:37:29.096Z,97638.01
2022-08-02T16:40:17.221Z,97638.11
2022-08-02T16:42:50.233Z,97640.65
2022-08-02T16:45:21.280Z,97644.02
2022-08-02T16:47:57.486Z,97645.66
2022-08-02T16:50:29.493Z,97650.30
2022-08-02T16:52:58.760Z,97652.35
2022-08-02T16:55:29.233Z,97652.34
2022-08-02T16:58:01.151Z,97652.37
2022-08-02T17:00:29.760Z,97651.20
2022-08-02T17:02:59.444Z,97655.42
2022-08-02T17:05:38.207Z,97656.64
2022-08-02T17:08:20.886Z,97657.59
2022-08-02T17:10:49.276Z,97660.80
2022-08-02T17:13:17.561Z,97659.39
2022-08-02T17:16:07.677Z,97661.59
2022-08-02T17:18:38.527Z,97660.23
2022-08-02T17:21:11.147Z,97659.02
2022-08-02T17:24:05.747Z,97660.88
2022-08-02T17:26:28.479Z,97658.75
2022-08-02T17:29:16.345Z,97662.00
2022-08-02T17:32:05.819Z,97664.75
2022-08-02T17:34:36.631Z,97665.64
2022-08-02T17:37:06.314Z,97666.69
2022-08-02T17:39:44.447Z,97670.30
2022-08-02T17:42:23.804Z,97672.67
2022-08-02T17:45:07.096Z,97676.50
2022-08-02T17:48:04.926Z,97678.72
2022-08-02T17:50:34.596Z,97674.96
2022-08-02T17:53:02.877Z,97674.91
2022-08-02T17:55:33.397Z,97673.25
2022-08-02T17:58:01.671Z,97673.55
2022-08-02T18:00:37.943Z,97673.51
2022-08-02T18:03:07.948Z,97672.98
2022-08-02T18:05:40.430Z,97676.29
2022-08-02T18:08:26.627Z,97677.73
2022-08-02T18:10:56.063Z,97678.75
2022-08-02T18:13:24.882Z,97681.14
2022-08-02T18:15:57.337Z,97684.41
2022-08-02T18:18:30.002Z,97681.66
2022-08-02T18:21:15.503Z,97680.73
2022-08-02T18:23:49.581Z,97686.34
2022-08-02T18:26:28.664Z,97689.52
2022-08-02T18:28:58.946Z,97690.96
2022-08-02T18:31:27.409Z,97694.24
2022-08-02T18:34:02.048Z,97699.04
2022-08-02T18:36:32.451Z,97705.29
2022-08-02T18:39:08.254Z,97707.46
2022-08-02T18:41:38.140Z,97715.15
2022-08-02T18:44:06.602Z,97718.30
2022-08-02T18:46:35.302Z,97717.88
2022-08-02T18:49:13.356Z,97718.40
2022-08-02T18:51:44.192Z,97716.16
2022-08-02T18:54:12.411Z,97719.43
2022-08-02T18:56:40.686Z,97722.98
2022-08-02T18:59:16.753Z,97721.19
2022-08-02T19:01:50.491Z,97721.58
2022-08-02T19:04:27.531Z,97719.34
2022-08-02T19:07:01.760Z,97721.52
2022-08-02T19:09:40.081Z,97726.52
2022-08-02T19:12:11.752Z,97733.30
2022-08-02T19:14:40.579Z,97735.62
2022-08-02T19:17:15.787Z,97734.91
2022-08-02T19:19:44.425Z,97735.92
2022-08-02T19:22:15.852Z,97734.64
2022-08-02T19:25:00.006Z,97739.67
2022-08-02T19:30:19.707Z,97737.28
2022-08-02T19:32:59.272Z,97737.80
2022-08-02T19:35:34.221Z,97737.26
2022-08-02T19:38:08.785Z,97736.99
2022-08-02T19:40:38.987Z,97739.13
2022-08-02T19:44:24.600Z,97740.08
2022-08-02T19:45:57.573Z,97743.39
2022-08-02T19:48:26.976Z,97739.77
2022-08-02T19:50:59.492Z,97739.63
2022-08-02T19:53:48.735Z,97736.89
2022-08-02T19:56:25.037Z,97735.38
2022-08-02T19:58:57.896Z,97740.91
2022-08-02T20:01:38.356Z,97739.12
2022-08-02T20:04:13.419Z,97740.60
2022-08-02T20:06:46.084Z,97740.96
2022-08-02T20:09:21.281Z,97739.59
2022-08-02T20:11:54.817Z,97741.57
2022-08-02T20:14:27.654Z,97741.20
2022-08-02T20:16:57.633Z,97742.84
2022-08-02T20:19:29.098Z,97741.77
2022-08-02T20:22:00.671Z,97741.48
2022-08-02T20:24:29.772Z,97740.88
2022-08-02T20:26:59.338Z,97745.30
2022-08-02T20:29:42.781Z,97747.48
2022-08-02T20:32:14.849Z,97747.42
2022-08-02T20:34:43.205Z,97753.11
2022-08-02T20:38:01.088Z,97752.48
2022-08-02T20:40:06.896Z,97757.22
2022-08-02T20:42:35.380Z,97756.40
2022-08-02T20:45:05.585Z,97756.28
2022-08-02T20:47:39.473Z,97758.09
2022-08-02T20:50:30.644Z,97759.30
2022-08-02T20:53:01.181Z,97762.45
2022-08-02T20:55:31.002Z,97764.58
2022-08-02T20:58:02.062Z,97770.05
2022-08-02T21:00:32.162Z,97773.11
2022-08-02T21:03:02.614Z,97775.98
2022-08-02T21:05:54.125Z,97773.58
2022-08-02T21:08:21.373Z,97771.59
2022-08-02T21:10:52.573Z,97772.64
2022-08-02T21:13:26.071Z,97777.34
2022-08-02T21:15:56.937Z,97779.73
2022-08-02T21:18:40.089Z,97776.65
2022-08-02T21:21:10.741Z,97774.04
2022-08-02T21:23:48.586Z,97772.25
2022-08-02T21:26:19.829Z,97779.23
2022-08-02T21:28:54.132Z,97781.14
2022-08-02T21:31:22.670Z,97781.35
2022-08-02T21:33:58.724Z,97781.06
2022-08-02T21:36:31.613Z,97783.81
2022-08-02T21:39:05.942Z,97782.95
2022-08-02T21:41:46.321Z,97783.94
2022-08-02T21:44:17.159Z,97783.16
2022-08-02T21:46:53.979Z,97784.28
2022-08-02T21:49:27.031Z,97786.30
2022-08-02T21:51:55.822Z,97788.86
2022-08-02T21:54:24.040Z,97792.86
2022-08-02T21:56:53.260Z,97794.83
2022-08-02T21:59:26.132Z,97799.94
2022-08-02T22:04:47.844Z,97801.41
2022-08-02T22:07:24.017Z,97798.94
2022-08-02T22:10:09.581Z,97803.10
2022-08-02T22:12:37.946Z,97803.98
2022-08-02T22:15:10.422Z,97806.10
2022-08-02T22:17:51.813Z,97808.69
2022-08-02T22:20:22.232Z,97809.23
2022-08-02T22:22:52.061Z,97811.91
2022-08-02T22:25:31.183Z,97815.78
2022-08-02T22:28:34.941Z,97815.11
2022-08-02T22:30:57.544Z,97815.49
2022-08-02T22:34:00.966Z,97816.93
2022-08-02T22:36:31.988Z,97811.16
2022-08-02T22:39:01.790Z,97811.56
2022-08-02T22:42:00.113Z,97813.41
2022-08-02T22:44:19.007Z,97815.93
2022-08-02T22:46:50.220Z,97815.61
2022-08-02T22:49:37.079Z,97814.69
2022-08-02T22:52:07.786Z,97818.52
2022-08-02T22:54:36.270Z,97819.56
2022-08-02T22:57:06.531Z,97822.24
2022-08-02T22:58:48.174Z,97739.20
2022-08-02T22:59:12.690Z,97798.19
2022-08-02T22:59:40.738Z,97823.48
2022-08-02T23:02:10.599Z,97822.63
2022-08-02T23:04:39.026Z,97825.88
2022-08-02T23:07:07.305Z,97828.02
2022-08-02T23:09:35.583Z,97825.70
2022-08-02T23:12:04.571Z,97832.05
2022-08-02T23:14:32.577Z,97830.91
2022-08-02T23:17:19.254Z,97829.86
2022-08-02T23:19:53.483Z,97831.22
2022-08-02T23:22:29.165Z,97831.70
2022-08-02T23:24:59.235Z,97836.42
2022-08-02T23:27:27.616Z,97836.36
2022-08-02T23:29:55.785Z,97838.21
2022-08-02T23:32:25.738Z,97837.66
2022-08-02T23:34:58.490Z,97837.45
2022-08-02T23:37:26.556Z,97838.29
2022-08-02T23:39:54.832Z,97835.82
2022-08-02T23:42:25.510Z,97835.24
2022-08-02T23:44:54.151Z,97835.39
2022-08-02T23:47:22.744Z,97842.83
2022-08-02T23:49:51.114Z,97845.59
2022-08-02T23:52:20.318Z,97850.36
2022-08-02T23:54:48.413Z,97847.56
2022-08-02T23:57:20.829Z,97846.39
2022-08-02T23:59:52.544Z,97848.00
